Time;durP1;ratioP1;P1;durP2;ratioP2;P2;SDS_P1;SDS_P2;PMS_P1;PMS_P2;Temp;Humidity;BMP_temperature;BMP_pressure;BME280_temperature;BME280_humidity;BME280_pressure;Samples;Min_cycle;Max_cycle;Signal;HPM_P1;HPM_P2
2023/01/17 00:01:32;;;;;;;11.82;7.93;;;;;;;2.61;100.00;96003.94;5019210;28;20029;-62
2023/01/17 00:12:11;;;;;;;10.38;6.82;;;;;;;2.81;100.00;96054.94;5034440;28;20048;-61
2023/01/17 00:14:36;;;;;;;10.98;7.57;;;;;;;2.84;100.00;96044.38;5021453;28;20036;-61
2023/01/17 00:17:03;;;;;;;12.60;8.13;;;;;;;2.82;100.00;96061.69;5027421;28;20479;-62
2023/01/17 01:34:36;;;;;;;11.98;7.20;;;;;;;2.85;100.00;96057.06;5040380;28;20111;-62
2023/01/17 01:37:02;;;;;;;12.00;7.70;;;;;;;3.05;100.00;96082.44;5030988;28;20515;-63
2023/01/17 01:39:27;;;;;;;11.63;7.55;;;;;;;3.05;100.00;96097.84;5026901;28;20044;-62
2023/01/17 01:41:53;;;;;;;11.48;7.03;;;;;;;3.05;100.00;96096.06;5022856;28;20037;-62
2023/01/17 01:44:41;;;;;;;11.05;7.18;;;;;;;3.04;100.00;96093.66;5028295;28;20025;-62
2023/01/17 01:47:08;;;;;;;11.65;7.18;;;;;;;3.12;100.00;96090.28;5004576;28;20123;-63
2023/01/17 01:49:34;;;;;;;10.00;7.00;;;;;;;3.14;100.00;96091.75;5026341;28;20025;-62
2023/01/17 01:52:01;;;;;;;9.98;6.95;;;;;;;3.17;100.00;96083.69;5004070;28;20443;-62
2023/01/17 01:54:33;;;;;;;11.43;6.93;;;;;;;3.13;100.00;96085.00;5027239;28;20384;-63
2023/01/17 01:57:02;;;;;;;11.73;6.95;;;;;;;3.10;100.00;96080.16;5040552;28;20131;-62
2023/01/17 01:59:29;;;;;;;11.57;7.20;;;;;;;3.18;100.00;96084.53;5036984;28;20083;-62
2023/01/17 02:01:57;;;;;;;10.70;6.82;;;;;;;3.20;100.00;96080.81;5028735;28;20311;-63
2023/01/17 02:04:23;;;;;;;9.98;6.38;;;;;;;3.17;100.00;96060.59;5025902;28;20029;-62
2023/01/17 02:06:52;;;;;;;11.05;7.10;;;;;;;3.13;100.00;96050.81;5031521;28;20249;-62
2023/01/17 02:09:18;;;;;;;11.00;6.90;;;;;;;3.00;100.00;96059.00;5021064;28;20123;-62
2023/01/17 02:11:45;;;;;;;12.35;7.47;;;;;;;2.99;100.00;96068.44;5024696;28;20276;-63
2023/01/17 02:14:14;;;;;;;10.80;7.50;;;;;;;3.11;100.00;96068.94;5023160;28;20078;-62
2023/01/17 02:16:52;;;;;;;12.45;7.55;;;;;;;3.15;100.00;96066.84;5023981;28;20035;-62
2023/01/17 02:19:39;;;;;;;10.75;7.10;;;;;;;3.10;100.00;96061.41;5041227;28;20650;-62
2023/01/17 02:22:07;;;;;;;11.43;7.40;;;;;;;3.05;100.00;96057.56;5038798;28;20028;-61
2023/01/17 02:24:47;;;;;;;11.65;7.15;;;;;;;3.10;100.00;96058.81;5024973;28;20029;-62
2023/01/17 02:27:27;;;;;;;11.80;7.15;;;;;;;3.04;100.00;96053.38;5037189;28;20037;-63
2023/01/17 02:30:17;;;;;;;10.38;6.88;;;;;;;3.06;100.00;96040.38;5043271;28;20446;-62
2023/01/17 02:32:49;;;;;;;11.25;7.90;;;;;;;2.81;100.00;95990.78;5035550;28;20028;-63
2023/01/17 02:35:26;;;;;;;9.73;6.45;;;;;;;2.80;100.00;95989.19;5028331;28;20059;-63
2023/01/17 02:38:10;;;;;;;10.45;7.13;;;;;;;3.01;100.00;96042.63;5031990;28;20056;-62
2023/01/17 02:40:44;;;;;;;12.32;7.53;;;;;;;2.87;100.00;96023.53;5036082;28;20511;-64
2023/01/17 02:43:13;;;;;;;12.27;7.22;;;;;;;2.72;100.00;96005.41;5034344;28;20025;-64
2023/01/17 02:45:39;;;;;;;9.70;6.13;;;;;;;2.59;100.00;96003.31;5041175;28;20040;-63
2023/01/17 02:48:07;;;;;;;12.23;7.05;;;;;;;2.52;100.00;95980.97;5008677;28;20028;-63
2023/01/17 02:50:49;;;;;;;9.98;6.75;;;;;;;2.54;100.00;95999.59;5006950;28;20652;-62
2023/01/17 02:53:39;;;;;;;11.38;6.78;;;;;;;2.37;100.00;95999.56;5015635;28;20045;-63
2023/01/17 02:56:41;;;;;;;10.57;6.65;;;;;;;2.30;100.00;96004.53;4994092;28;20045;-63
2023/01/17 02:59:22;;;;;;;10.63;6.93;;;;;;;2.30;100.00;95991.72;5026922;28;20073;-63
2023/01/17 03:02:08;;;;;;;11.88;7.18;;;;;;;2.28;100.00;95993.63;5041752;28;20403;-62
2023/01/17 03:04:41;;;;;;;11.80;7.38;;;;;;;2.25;100.00;96005.97;5001345;28;20091;-63
2023/01/17 03:07:11;;;;;;;12.07;7.07;;;;;;;2.31;100.00;95990.72;5037240;28;20025;-63
2023/01/17 03:09:39;;;;;;;10.90;6.97;;;;;;;2.30;100.00;95989.13;5031148;28;20025;-62
2023/01/17 03:12:05;;;;;;;10.48;6.47;;;;;;;2.38;100.00;95985.78;5035404;28;20116;-63
2023/01/17 03:14:31;;;;;;;11.70;6.80;;;;;;;2.37;100.00;95973.13;5016723;28;20498;-63
2023/01/17 03:16:56;;;;;;;10.32;6.88;;;;;;;2.48;100.00;95976.19;5041851;28;20024;-62
2023/01/17 03:19:22;;;;;;;12.93;7.57;;;;;;;2.36;100.00;95946.69;5022952;28;20029;-64
2023/01/17 03:21:48;;;;;;;11.02;6.63;;;;;;;2.36;100.00;95923.59;5024617;28;20416;-63
2023/01/17 03:24:14;;;;;;;10.82;6.80;;;;;;;2.40;100.00;95937.69;5022774;28;20017;-62
2023/01/17 03:26:43;;;;;;;10.93;6.78;;;;;;;2.44;100.00;95941.53;5037085;28;20033;-63
2023/01/17 03:29:10;;;;;;;12.15;7.55;;;;;;;2.21;100.00;95899.53;5025094;28;20032;-63
2023/01/17 03:31:35;;;;;;;13.85;8.23;;;;;;;2.15;100.00;95900.16;5015160;28;20029;-62
2023/01/17 03:34:01;;;;;;;12.10;7.50;;;;;;;2.41;100.00;95938.50;5022455;28;20032;-62
2023/01/17 03:36:26;;;;;;;11.20;7.13;;;;;;;2.45;100.00;95922.63;5034176;28;20763;-63
2023/01/17 03:38:52;;;;;;;11.93;7.85;;;;;;;2.45;100.00;95919.28;5024282;28;20056;-63
2023/01/17 03:41:17;;;;;;;12.20;7.47;;;;;;;2.18;100.00;95877.59;5012861;28;20708;-62
2023/01/17 03:43:44;;;;;;;11.43;7.53;;;;;;;2.45;100.00;95916.72;5019806;28;20475;-63
2023/01/17 03:46:21;;;;;;;11.82;7.55;;;;;;;2.13;100.00;95859.31;5017685;28;20037;-62
2023/01/17 03:48:47;;;;;;;11.98;7.65;;;;;;;2.35;100.00;95892.97;5019428;28;20029;-63
2023/01/17 03:51:33;;;;;;;11.95;7.40;;;;;;;2.44;100.00;95892.81;5020593;28;20036;-63
2023/01/17 03:53:59;;;;;;;12.07;7.13;;;;;;;2.35;100.00;95888.63;5037303;28;20051;-63
2023/01/17 03:56:24;;;;;;;11.27;6.63;;;;;;;2.38;100.00;95913.97;5028736;28;20025;-62
2023/01/17 03:58:52;;;;;;;13.48;7.28;;;;;;;2.35;100.00;95906.59;5017635;28;20428;-63
2023/01/17 04:01:17;;;;;;;10.02;6.53;;;;;;;2.33;100.00;95900.81;5013401;28;20029;-62
2023/01/17 04:03:43;;;;;;;12.10;6.85;;;;;;;2.44;100.00;95913.31;5028609;28;20095;-63
2023/01/17 04:06:08;;;;;;;11.35;6.88;;;;;;;2.22;100.00;95886.56;5031726;28;20026;-63
2023/01/17 04:08:34;;;;;;;10.15;6.50;;;;;;;2.48;100.00;95924.88;5040597;28;20117;-63
2023/01/17 04:10:59;;;;;;;10.85;6.47;;;;;;;2.42;100.00;95912.69;5039280;28;20104;-64
2023/01/17 04:13:25;;;;;;;10.23;5.97;;;;;;;2.55;100.00;95929.38;5024584;28;20542;-62
2023/01/17 04:15:50;;;;;;;9.55;6.28;;;;;;;2.54;100.00;95930.31;5020435;28;20021;-62
2023/01/17 04:18:17;;;;;;;9.57;5.63;;;;;;;2.56;100.00;95923.28;5011371;28;20124;-62
2023/01/17 04:20:42;;;;;;;9.00;5.65;;;;;;;2.63;100.00;95925.06;5027662;28;20136;-62
2023/01/17 04:23:08;;;;;;;10.85;6.22;;;;;;;2.66;100.00;95911.88;5039287;28;20262;-63
2023/01/17 04:25:33;;;;;;;10.25;5.88;;;;;;;2.71;100.00;95913.19;5016657;28;20033;-63
2023/01/17 04:28:02;;;;;;;9.10;5.75;;;;;;;2.77;100.00;95897.91;5023919;28;20041;-63
2023/01/17 04:30:28;;;;;;;9.93;5.55;;;;;;;2.56;100.00;95859.94;5039106;28;20528;-63
2023/01/17 04:32:54;;;;;;;8.93;5.38;;;;;;;2.84;100.00;95903.22;5030992;28;20025;-63
2023/01/17 04:35:20;;;;;;;10.98;5.82;;;;;;;2.74;100.00;95908.53;5018763;28;20459;-63
2023/01/17 04:37:46;;;;;;;10.27;6.00;;;;;;;2.75;100.00;95920.38;5036123;28;20718;-62
2023/01/17 04:40:12;;;;;;;8.80;5.38;;;;;;;2.54;100.00;95896.97;5037399;28;20042;-63
2023/01/17 04:42:38;;;;;;;9.70;5.53;;;;;;;2.72;100.00;95931.00;5020873;28;20040;-62
2023/01/17 04:45:04;;;;;;;9.88;5.43;;;;;;;2.75;100.00;95933.22;5039693;28;20041;-62
2023/01/17 04:47:32;;;;;;;9.50;5.35;;;;;;;2.67;100.00;95928.88;5016237;28;20567;-62
2023/01/17 04:49:57;;;;;;;12.38;7.13;;;;;;;2.47;100.00;95894.28;5019499;28;20033;-62
2023/01/17 04:52:24;;;;;;;11.18;6.85;;;;;;;2.58;100.00;95940.13;5020989;28;20033;-62
2023/01/17 04:54:50;;;;;;;12.45;7.28;;;;;;;2.54;100.00;95920.88;5019996;28;20029;-62
2023/01/17 04:57:19;;;;;;;12.20;7.72;;;;;;;2.60;100.00;95919.44;5023519;28;20061;-63
2023/01/17 04:59:45;;;;;;;12.20;6.78;;;;;;;2.75;100.00;95920.38;5022175;28;20029;-62
2023/01/17 05:02:11;;;;;;;13.70;7.90;;;;;;;2.82;100.00;95907.72;5021268;28;20021;-64
2023/01/17 05:04:37;;;;;;;13.70;7.60;;;;;;;2.55;100.00;95865.25;5038000;28;20033;-64
2023/01/17 05:07:03;;;;;;;11.82;7.65;;;;;;;2.84;100.00;95887.81;5011031;28;20375;-61
2023/01/17 05:09:29;;;;;;;12.93;7.82;;;;;;;2.90;100.00;95900.00;5037185;28;20634;-61
2023/01/17 05:11:56;;;;;;;11.95;7.28;;;;;;;2.68;100.00;95870.66;5020111;28;20036;-63
2023/01/17 05:14:25;;;;;;;13.45;8.10;;;;;;;2.64;100.00;95866.84;5030699;28;20113;-62
2023/01/17 05:16:54;;;;;;;11.90;8.20;;;;;;;2.83;100.00;95912.69;5034229;28;20048;-61
2023/01/17 05:19:20;;;;;;;13.30;7.97;;;;;;;2.81;100.00;95921.50;5014175;28;20120;-63
2023/01/17 05:21:45;;;;;;;11.88;7.68;;;;;;;2.70;100.00;95938.03;5026712;28;20112;-63
2023/01/17 05:24:11;;;;;;;11.93;7.65;;;;;;;2.82;100.00;95935.94;5023746;28;20535;-62
2023/01/17 05:26:36;;;;;;;11.52;7.13;;;;;;;2.69;100.00;95944.13;5037063;28;20485;-62
2023/01/17 05:29:02;;;;;;;13.27;7.57;;;;;;;2.73;100.00;95929.22;5024877;28;20384;-62
2023/01/17 05:31:27;;;;;;;11.82;7.38;;;;;;;2.79;100.00;95923.44;5009478;28;20403;-62
2023/01/17 05:33:53;;;;;;;12.68;7.63;;;;;;;2.63;100.00;95926.81;5042402;28;20540;-62
2023/01/17 05:36:18;;;;;;;13.05;7.15;;;;;;;2.77;100.00;95935.63;5027046;28;20029;-62
2023/01/17 05:38:44;;;;;;;11.55;7.00;;;;;;;2.85;100.00;95936.41;5027285;28;20099;-62
2023/01/17 05:41:09;;;;;;;11.40;7.07;;;;;;;2.77;100.00;95927.94;5008510;28;20025;-62
2023/01/17 05:43:35;;;;;;;11.75;7.07;;;;;;;2.82;100.00;95941.88;5026381;28;20037;-62
2023/01/17 05:46:00;;;;;;;12.00;7.85;;;;;;;2.88;100.00;95941.25;5009968;28;20515;-62
2023/01/17 05:48:26;;;;;;;12.02;7.95;;;;;;;2.89;100.00;95930.00;5045789;28;20198;-63
2023/01/17 05:50:51;;;;;;;12.98;8.77;;;;;;;2.79;100.00;95942.22;5020969;28;20396;-62
2023/01/17 05:53:18;;;;;;;10.85;7.65;;;;;;;2.59;100.00;95935.78;5025526;28;20563;-62
2023/01/17 05:55:44;;;;;;;12.13;7.57;;;;;;;2.53;100.00;95928.72;5009707;28;20033;-62
2023/01/17 05:58:16;;;;;;;13.73;8.27;;;;;;;2.43;100.00;95918.63;5023095;28;20046;-62
2023/01/17 06:00:42;;;;;;;11.88;7.45;;;;;;;2.43;100.00;95916.06;5024937;28;20033;-62
2023/01/17 06:03:07;;;;;;;11.40;7.03;;;;;;;2.46;100.00;95918.31;5020773;28;20032;-62
2023/01/17 06:05:33;;;;;;;11.15;7.13;;;;;;;2.37;100.00;95909.78;5020269;28;20052;-63
2023/01/17 06:07:58;;;;;;;12.60;7.82;;;;;;;2.42;100.00;95901.63;5033882;28;20076;-62
2023/01/17 06:10:26;;;;;;;10.98;6.82;;;;;;;2.41;100.00;95898.28;5022148;28;20065;-62
2023/01/17 06:13:04;;;;;;;12.98;7.38;;;;;;;2.39;100.00;95902.78;5034665;28;20043;-62
2023/01/17 06:15:29;;;;;;;10.23;6.60;;;;;;;2.36;100.00;95907.41;5023021;28;20061;-63
2023/01/17 06:17:55;;;;;;;11.30;6.95;;;;;;;2.25;100.00;95904.19;5017980;28;20148;-62
2023/01/17 06:20:20;;;;;;;10.35;5.88;;;;;;;2.32;100.00;95904.38;5021944;28;20029;-63
2023/01/17 06:22:46;;;;;;;13.18;6.72;;;;;;;2.31;100.00;95889.94;5035649;28;20033;-63
2023/01/17 06:25:11;;;;;;;13.10;7.47;;;;;;;2.26;100.00;95892.16;5040236;28;20063;-64
2023/01/17 06:27:37;;;;;;;12.45;6.85;;;;;;;2.29;100.00;95884.94;5034550;28;20041;-62
2023/01/17 06:30:03;;;;;;;10.10;5.90;;;;;;;2.07;100.00;95852.25;5025787;28;20122;-62
2023/01/17 06:32:28;;;;;;;12.85;7.63;;;;;;;2.30;100.00;95890.91;5008779;28;20060;-62
2023/01/17 06:34:54;;;;;;;11.02;7.15;;;;;;;2.31;100.00;95898.41;5039106;28;20066;-63
2023/01/17 06:37:19;;;;;;;10.55;7.22;;;;;;;2.30;100.00;95894.25;5025152;28;20569;-63
2023/01/17 06:39:46;;;;;;;10.50;7.35;;;;;;;2.06;100.00;95851.47;5039850;28;20028;-62
2023/01/17 06:42:12;;;;;;;13.10;8.23;;;;;;;2.42;100.00;95893.94;5009902;28;20864;-63
2023/01/17 06:44:37;;;;;;;12.20;7.10;;;;;;;2.41;100.00;95897.47;5021760;28;20027;-63
2023/01/17 06:47:03;;;;;;;10.85;6.93;;;;;;;2.34;100.00;95892.19;5026747;28;20037;-63
2023/01/17 06:49:28;;;;;;;11.65;7.40;;;;;;;2.27;100.00;95886.88;5019392;28;20039;-63
2023/01/17 06:51:53;;;;;;;10.80;6.78;;;;;;;2.35;100.00;95896.34;5012114;28;20029;-62
2023/01/17 06:54:19;;;;;;;11.65;7.40;;;;;;;2.35;100.00;95882.72;5041277;28;20057;-63
2023/01/17 06:56:45;;;;;;;13.05;7.65;;;;;;;2.41;100.00;95871.81;5034270;28;20516;-64
2023/01/17 06:59:10;;;;;;;10.23;6.78;;;;;;;2.39;100.00;95859.16;5026465;28;20671;-63
2023/01/17 07:01:36;;;;;;;12.07;6.90;;;;;;;2.01;100.00;95799.06;5020130;28;20040;-66
2023/01/17 07:04:03;;;;;;;9.75;5.90;;;;;;;2.40;100.00;95842.00;5036555;28;20035;-63
2023/01/17 07:06:28;;;;;;;10.68;6.15;;;;;;;2.39;100.00;95861.72;5020975;28;20040;-62
2023/01/17 07:08:55;;;;;;;9.55;5.28;;;;;;;2.42;100.00;95843.44;5034351;28;20051;-63
2023/01/17 07:11:21;;;;;;;10.88;6.60;;;;;;;2.19;100.00;95815.09;5021487;28;20021;-63
2023/01/17 07:13:46;;;;;;;11.45;6.82;;;;;;;2.42;100.00;95858.81;5025023;28;20455;-63
2023/01/17 07:16:12;;;;;;;12.57;6.97;;;;;;;2.39;100.00;95856.59;5020130;28;20255;-63
2023/01/17 07:18:37;;;;;;;10.38;6.25;;;;;;;2.37;100.00;95860.28;5026797;28;20479;-63
2023/01/17 07:21:03;;;;;;;9.30;6.13;;;;;;;2.44;100.00;95856.09;5025063;28;20182;-63
2023/01/17 07:23:28;;;;;;;10.68;6.28;;;;;;;2.42;100.00;95846.00;5035962;28;20028;-63
2023/01/17 07:25:56;;;;;;;10.27;5.90;;;;;;;2.42;100.00;95837.53;5038631;28;20025;-63
2023/01/17 07:28:22;;;;;;;9.27;5.60;;;;;;;2.51;100.00;95849.38;5026213;28;20082;-63
2023/01/17 07:30:47;;;;;;;9.93;5.65;;;;;;;2.42;100.00;95830.63;5029518;28;20028;-63
2023/01/17 07:33:13;;;;;;;9.55;5.43;;;;;;;2.49;100.00;95829.00;5020220;28;20040;-63
2023/01/17 07:35:39;;;;;;;8.45;4.80;;;;;;;2.60;100.00;95834.78;5025177;28;20020;-63
2023/01/17 07:38:10;;;;;;;11.48;4.93;;;;;;;2.58;100.00;95819.53;5032244;28;20032;-63
2023/01/17 07:40:36;;;;;;;8.85;5.22;;;;;;;2.48;100.00;95803.53;5034806;28;20056;-63
2023/01/17 07:43:11;;;;;;;7.72;4.38;;;;;;;2.28;100.00;95756.91;5035138;28;20526;-61
2023/01/17 07:45:40;;;;;;;7.38;4.10;;;;;;;2.60;100.00;95811.69;5019419;28;20033;-63
2023/01/17 07:48:05;;;;;;;9.38;4.90;;;;;;;2.39;100.00;95768.59;5035765;28;20029;-63
2023/01/17 07:50:31;;;;;;;9.10;5.35;;;;;;;2.60;100.00;95802.22;5041174;28;20484;-63
2023/01/17 07:52:56;;;;;;;9.27;4.38;;;;;;;2.62;100.00;95810.56;5022237;28;20025;-64
2023/01/17 07:55:22;;;;;;;10.18;5.38;;;;;;;2.63;100.00;95819.06;5024323;28;20230;-63
2023/01/17 07:57:49;;;;;;;9.27;4.97;;;;;;;2.47;100.00;95789.09;5013195;28;20354;-63
2023/01/17 08:00:16;;;;;;;8.98;4.70;;;;;;;2.38;100.00;95772.13;5002972;28;20026;-63
2023/01/17 08:02:41;;;;;;;8.05;4.95;;;;;;;2.59;100.00;95817.78;5037789;28;20036;-64
2023/01/17 08:05:07;;;;;;;11.40;5.75;;;;;;;2.64;100.00;95816.31;5031105;28;20031;-62
2023/01/17 08:07:33;;;;;;;8.90;4.85;;;;;;;2.60;100.00;95811.69;5022723;28;20067;-62
2023/01/17 08:10:00;;;;;;;9.13;4.78;;;;;;;2.66;100.00;95816.16;5023181;28;20033;-62
2023/01/17 08:12:26;;;;;;;8.90;5.05;;;;;;;2.38;100.00;95769.56;5036620;28;20033;-63
2023/01/17 08:14:51;;;;;;;8.85;4.47;;;;;;;2.72;100.00;95812.13;5038251;28;20025;-62
2023/01/17 08:17:19;;;;;;;9.98;4.95;;;;;;;2.79;100.00;95803.63;5036161;28;20644;-62
2023/01/17 08:19:44;;;;;;;8.57;4.60;;;;;;;2.88;100.00;95806.97;5018836;28;20021;-62
2023/01/17 08:22:11;;;;;;;8.02;4.28;;;;;;;2.89;100.00;95811.13;5040940;28;20395;-62
2023/01/17 08:24:37;;;;;;;7.95;4.35;;;;;;;2.90;100.00;95812.72;5037765;28;20030;-62
2023/01/17 08:27:03;;;;;;;8.30;4.70;;;;;;;2.94;100.00;95810.63;5036258;28;20052;-62
2023/01/17 08:29:28;;;;;;;8.77;4.32;;;;;;;2.88;100.00;95805.22;5023694;28;20064;-62
2023/01/17 08:31:54;;;;;;;8.65;4.45;;;;;;;2.81;100.00;95790.63;5029385;28;20044;-62
2023/01/17 08:34:19;;;;;;;7.70;4.65;;;;;;;2.80;100.00;95778.78;5023817;28;20032;-62
2023/01/17 08:36:46;;;;;;;8.57;3.80;;;;;;;2.88;100.00;95776.16;5021357;28;20048;-63
2023/01/17 08:39:13;;;;;;;6.55;3.92;;;;;;;2.83;100.00;95758.72;5016338;28;20048;-65
2023/01/17 08:41:38;;;;;;;7.25;3.88;;;;;;;2.83;100.00;95757.88;5019600;28;20037;-63
2023/01/17 08:44:04;;;;;;;9.27;4.28;;;;;;;2.83;100.00;95751.00;5016424;28;20028;-62
2023/01/17 08:46:30;;;;;;;8.93;4.50;;;;;;;2.81;100.00;95762.38;5022312;28;20036;-61
2023/01/17 08:48:57;;;;;;;9.60;5.25;;;;;;;2.78;100.00;95767.88;5036558;28;20029;-62
2023/01/17 08:51:25;;;;;;;7.80;4.15;;;;;;;2.79;100.00;95772.03;5024402;28;20029;-62
2023/01/17 08:53:51;;;;;;;9.15;4.43;;;;;;;2.49;100.00;95728.19;5022715;28;20037;-62
2023/01/17 08:56:17;;;;;;;8.48;4.90;;;;;;;2.50;100.00;95743.41;5036631;28;20039;-62
2023/01/17 08:58:43;;;;;;;8.32;4.32;;;;;;;2.47;100.00;95736.03;5024840;28;20360;-62
2023/01/17 09:01:09;;;;;;;9.88;5.22;;;;;;;2.80;100.00;95771.88;5026958;28;20384;-62
2023/01/17 09:03:35;;;;;;;9.10;4.35;;;;;;;2.76;100.00;95774.94;5025324;28;20132;-62
2023/01/17 09:06:06;;;;;;;6.72;3.25;;;;;;;2.69;100.00;95773.00;5041834;28;20039;-62
2023/01/17 09:08:32;;;;;;;6.47;3.42;;;;;;;2.75;100.00;95776.69;5029772;28;20538;-62
2023/01/17 09:10:58;;;;;;;7.97;4.30;;;;;;;2.80;100.00;95768.50;5021760;28;20838;-62
2023/01/17 09:13:23;;;;;;;7.18;4.22;;;;;;;2.57;100.00;95745.31;5008832;28;20033;-62
2023/01/17 09:15:55;;;;;;;8.07;4.13;;;;;;;2.75;100.00;95768.97;5022943;28;20040;-61
2023/01/17 09:18:20;;;;;;;7.70;4.68;;;;;;;2.85;100.00;95768.81;5024581;28;20104;-62
2023/01/17 09:21:16;;;;;;;7.95;4.38;;;;;;;2.81;100.00;95782.91;5024278;28;20032;-62
2023/01/17 09:23:43;;;;;;;8.60;5.00;;;;;;;2.83;100.00;95794.63;5024822;28;20479;-63
2023/01/17 09:26:17;;;;;;;7.88;4.20;;;;;;;2.74;100.00;95764.00;5024815;28;20036;-63
2023/01/17 09:28:45;;;;;;;8.27;4.18;;;;;;;2.90;100.00;95799.88;5029425;28;20017;-62
2023/01/17 09:31:10;;;;;;;8.70;4.40;;;;;;;2.97;100.00;95797.47;5043509;28;20025;-62
2023/01/17 09:33:36;;;;;;;7.28;4.25;;;;;;;2.69;100.00;95744.00;5022686;28;20028;-63
2023/01/17 09:36:03;;;;;;;8.75;4.82;;;;;;;2.99;100.00;95788.63;5023748;28;20484;-62
2023/01/17 09:38:29;;;;;;;11.60;5.03;;;;;;;2.95;100.00;95789.13;5035876;28;20025;-62
2023/01/17 09:40:54;;;;;;;22.38;11.45;;;;;;;3.01;100.00;95791.03;5022053;28;20029;-62
2023/01/17 09:43:55;;;;;;;10.43;5.63;;;;;;;2.96;100.00;95804.38;5023978;28;20029;-62
2023/01/17 09:46:30;;;;;;;7.70;4.28;;;;;;;2.96;100.00;95819.00;5015441;28;20123;-63
2023/01/17 09:49:02;;;;;;;7.35;3.85;;;;;;;2.93;100.00;95796.22;5023764;28;20052;-63
2023/01/17 09:51:28;;;;;;;7.63;4.30;;;;;;;2.84;100.00;95760.28;5012067;28;20082;-62
2023/01/17 09:53:54;;;;;;;9.38;5.45;;;;;;;3.16;100.00;95819.38;5015250;28;20029;-63
2023/01/17 09:56:31;;;;;;;7.88;4.15;;;;;;;3.11;100.00;95822.47;5023453;28;20749;-62
2023/01/17 09:59:12;;;;;;;7.78;4.40;;;;;;;3.20;100.00;95823.22;5026759;28;20112;-64
2023/01/17 10:02:10;;;;;;;7.00;3.80;;;;;;;3.22;100.00;95824.66;5033194;28;20040;-64
2023/01/17 10:05:06;;;;;;;7.55;4.07;;;;;;;3.15;100.00;95843.47;4996988;28;20052;-62
2023/01/17 10:08:09;;;;;;;8.32;4.75;;;;;;;3.15;100.00;95844.25;5035956;28;20028;-62
2023/01/17 10:11:13;;;;;;;9.32;4.75;;;;;;;3.08;100.00;95838.19;4980796;28;20034;-63
2023/01/17 10:13:57;;;;;;;7.32;3.60;;;;;;;3.15;100.00;95843.47;5005977;28;20045;-64
2023/01/17 10:16:31;;;;;;;7.93;3.80;;;;;;;3.24;100.00;95847.59;5037092;28;20044;-61
2023/01/17 10:19:21;;;;;;;8.63;3.92;;;;;;;3.29;100.00;95842.78;5024337;28;20060;-63
2023/01/17 10:22:10;;;;;;;7.88;4.07;;;;;;;3.39;100.00;95845.91;5039908;28;20033;-63
2023/01/17 10:24:35;;;;;;;7.30;4.20;;;;;;;3.20;100.00;95805.25;5038957;28;20025;-63
2023/01/17 10:27:02;;;;;;;8.95;4.15;;;;;;;3.46;100.00;95846.06;5043628;28;20025;-64
2023/01/17 10:29:32;;;;;;;9.57;5.55;;;;;;;3.46;100.00;95848.63;5014433;28;20104;-63
2023/01/17 10:32:01;;;;;;;9.48;5.63;;;;;;;3.32;100.00;95845.00;5035208;28;20029;-64
2023/01/17 10:34:51;;;;;;;9.88;5.70;;;;;;;3.41;100.00;95845.75;5008283;28;20059;-63
2023/01/17 10:37:26;;;;;;;12.88;6.63;;;;;;;3.11;100.00;95801.13;5017990;28;20044;-63
2023/01/17 10:39:55;;;;;;;9.85;6.03;;;;;;;3.35;100.00;95842.09;5021153;28;20098;-62
2023/01/17 10:42:24;;;;;;;11.13;6.50;;;;;;;3.32;100.00;95842.41;5022656;28;20079;-65
2023/01/17 10:45:04;;;;;;;13.57;6.97;;;;;;;3.15;100.00;95802.38;5024456;28;20025;-62
2023/01/17 10:47:33;;;;;;;12.55;7.00;;;;;;;3.45;100.00;95852.97;5034404;28;20032;-63
2023/01/17 10:50:03;;;;;;;11.00;7.70;;;;;;;3.18;100.00;95818.25;5020858;28;20034;-64
2023/01/17 10:52:42;;;;;;;10.75;7.13;;;;;;;3.50;100.00;95847.31;5023852;28;20033;-62
2023/01/17 10:55:26;;;;;;;10.25;7.10;;;;;;;3.47;100.00;95835.63;5021360;28;20029;-65
2023/01/17 10:57:53;;;;;;;13.07;7.28;;;;;;;3.39;100.00;95832.28;5033781;28;20024;-65
2023/01/17 11:00:38;;;;;;;12.30;7.43;;;;;;;3.40;100.00;95821.06;5002385;28;20064;-62
2023/01/17 11:03:05;;;;;;;11.88;7.85;;;;;;;3.33;100.00;95825.25;5039295;28;20507;-63
2023/01/17 11:05:31;;;;;;;12.55;7.63;;;;;;;3.29;100.00;95818.88;5006797;28;20179;-64
2023/01/17 11:08:12;;;;;;;10.82;7.30;;;;;;;3.39;100.00;95816.88;5004835;28;20028;-64
2023/01/17 11:10:53;;;;;;;11.40;7.03;;;;;;;3.43;100.00;95818.13;5001679;28;20048;-63
2023/01/17 11:13:31;;;;;;;12.82;7.72;;;;;;;3.47;100.00;95816.84;5011271;28;20119;-65
2023/01/17 11:16:00;;;;;;;11.95;7.50;;;;;;;3.23;100.00;95807.47;5011270;28;20052;-64
2023/01/17 11:18:28;;;;;;;15.15;7.40;;;;;;;3.18;100.00;95802.06;5017113;28;20096;-64
2023/01/17 11:21:10;;;;;;;11.00;7.65;;;;;;;3.14;100.00;95800.78;5017441;28;20032;-64
2023/01/17 11:23:38;;;;;;;11.98;7.30;;;;;;;3.24;100.00;95799.59;5014704;28;20425;-63
2023/01/17 11:26:06;;;;;;;8.68;5.57;;;;;;;3.18;100.00;95802.06;5006942;28;20025;-64
2023/01/17 11:28:42;;;;;;;8.88;5.50;;;;;;;3.10;100.00;95796.94;5022168;28;20028;-65
2023/01/17 11:31:15;;;;;;;8.77;5.45;;;;;;;2.87;100.00;95795.09;5006835;28;20031;-64
2023/01/17 11:33:54;;;;;;;8.95;5.78;;;;;;;2.89;100.00;95803.44;5032169;28;20408;-64
2023/01/17 11:36:26;;;;;;;8.43;5.83;;;;;;;2.85;100.00;95794.47;5018690;28;20492;-64
2023/01/17 11:39:17;;;;;;;9.68;5.80;;;;;;;2.95;100.00;95791.72;5023350;28;20829;-63
2023/01/17 11:41:46;;;;;;;8.57;5.47;;;;;;;3.03;100.00;95778.81;5017838;28;20048;-66
2023/01/17 11:44:31;;;;;;;9.13;5.43;;;;;;;3.01;100.00;95762.78;5026079;28;20071;-65
2023/01/17 11:47:06;;;;;;;10.18;5.75;;;;;;;2.81;100.00;95749.56;5023241;28;20025;-64
2023/01/17 11:49:31;;;;;;;9.48;5.70;;;;;;;2.66;100.00;95747.69;5020626;28;20084;-64
2023/01/17 11:51:57;;;;;;;9.82;5.78;;;;;;;2.61;100.00;95756.84;5016622;28;20083;-64
2023/01/17 11:54:27;;;;;;;10.48;5.85;;;;;;;2.58;100.00;95759.75;4999355;28;20549;-63
2023/01/17 11:56:57;;;;;;;10.13;5.53;;;;;;;2.44;100.00;95738.13;5008803;28;20153;-63
2023/01/17 11:59:36;;;;;;;8.48;4.97;;;;;;;2.21;100.00;95746.53;5007807;28;20063;-64
2023/01/17 12:02:20;;;;;;;10.13;4.75;;;;;;;2.02;100.00;95706.63;5022019;28;20025;-64
2023/01/17 12:05:27;;;;;;;8.57;4.75;;;;;;;2.34;100.00;95755.44;5040722;28;20436;-62
2023/01/17 12:08:15;;;;;;;9.35;5.13;;;;;;;2.20;100.00;95749.25;5000463;28;20195;-63
2023/01/17 12:10:58;;;;;;;8.70;4.85;;;;;;;2.29;100.00;95751.63;5002909;28;20031;-63
2023/01/17 12:16:30;;;;;;;6.63;3.47;;;;;;;2.52;100.00;95738.13;5035647;28;20118;-63
2023/01/17 12:19:21;;;;;;;7.20;3.83;;;;;;;2.38;100.00;95741.38;5033784;28;20040;-63
2023/01/17 12:22:27;;;;;;;6.70;3.83;;;;;;;2.57;100.00;95728.16;5033110;28;20572;-66
2023/01/17 12:25:01;;;;;;;7.00;3.58;;;;;;;2.48;100.00;95727.38;5034616;28;20061;-64
2023/01/17 12:27:42;;;;;;;9.23;4.00;;;;;;;2.56;100.00;95718.06;5029843;28;20056;-65
2023/01/17 12:30:23;;;;;;;7.70;3.72;;;;;;;2.55;100.00;95712.13;5003557;28;20123;-64
2023/01/17 12:32:57;;;;;;;6.85;3.63;;;;;;;2.62;100.00;95702.81;5038598;28;20040;-64
2023/01/17 12:35:32;;;;;;;5.82;3.47;;;;;;;2.58;100.00;95705.88;5037617;28;20056;-63
2023/01/17 12:38:06;;;;;;;6.88;3.88;;;;;;;2.38;100.00;95684.94;5025867;28;20040;-63
2023/01/17 12:41:02;;;;;;;8.32;3.92;;;;;;;2.31;100.00;95680.47;5022868;28;20108;-63
2023/01/17 12:43:35;;;;;;;6.68;3.75;;;;;;;2.30;100.00;95671.19;5013981;28;20511;-65
2023/01/17 12:46:07;;;;;;;7.65;4.15;;;;;;;2.32;100.00;95671.03;5029086;28;20094;-62
2023/01/17 12:48:35;;;;;;;8.05;4.20;;;;;;;2.33;100.00;95659.78;5020269;28;20029;-63
2023/01/17 12:51:13;;;;;;;7.10;3.55;;;;;;;2.33;100.00;95628.22;5016844;28;20038;-64
2023/01/17 12:53:54;;;;;;;5.15;2.63;;;;;;;2.35;100.00;95626.28;5018626;28;20064;-63
2023/01/17 12:56:40;;;;;;;5.32;2.92;;;;;;;2.35;100.00;95633.97;5020057;28;20036;-64
2023/01/17 12:59:20;;;;;;;6.95;3.05;;;;;;;2.23;100.00;95639.47;5008379;28;20155;-63
2023/01/17 13:01:56;;;;;;;6.78;2.90;;;;;;;2.34;100.00;95616.97;5027140;28;20032;-62
2023/01/17 13:04:28;;;;;;;5.95;2.78;;;;;;;2.15;100.00;95595.13;5037334;28;20038;-63
2023/01/17 13:07:09;;;;;;;6.28;2.80;;;;;;;2.20;100.00;95565.44;5037408;28;20115;-63
2023/01/17 13:09:39;;;;;;;5.95;3.05;;;;;;;2.24;100.00;95530.03;5025689;28;20029;-63
2023/01/17 13:12:10;;;;;;;5.47;2.92;;;;;;;2.31;100.00;95526.59;5036791;28;20091;-64